sensor_id;sensor_type;location;lat;lon;timestamp;P1;durP1;ratioP1;P2;durP2;ratioP2
27408;SDS011;20413;50.782;7.152;2022-09-17T00:00:59;7.28;;;1.95;;
27408;SDS011;20413;50.782;7.152;2022-09-17T00:03:25;3.65;;;0.88;;
27408;SDS011;20413;50.782;7.152;2022-09-17T00:06:03;8.30;;;1.30;;
27408;SDS011;20413;50.782;7.152;2022-09-17T00:08:29;1.55;;;0.70;;
27408;SDS011;20413;50.782;7.152;2022-09-17T00:10:55;6.75;;;1.00;;
27408;SDS011;20413;50.782;7.152;2022-09-17T00:13:22;5.72;;;1.00;;
27408;SDS011;20413;50.782;7.152;2022-09-17T00:15:48;6.10;;;0.88;;
27408;SDS011;20413;50.782;7.152;2022-09-17T00:18:16;3.85;;;1.02;;
27408;SDS011;20413;50.782;7.152;2022-09-17T00:20:43;4.05;;;0.80;;
27408;SDS011;20413;50.782;7.152;2022-09-17T00:23:10;4.33;;;0.90;;
27408;SDS011;20413;50.782;7.152;2022-09-17T00:25:37;5.65;;;0.75;;
27408;SDS011;20413;50.782;7.152;2022-09-17T00:28:03;4.07;;;1.20;;
27408;SDS011;20413;50.782;7.152;2022-09-17T00:30:29;3.92;;;0.77;;
27408;SDS011;20413;50.782;7.152;2022-09-17T00:32:55;4.88;;;1.27;;
27408;SDS011;20413;50.782;7.152;2022-09-17T00:35:25;2.28;;;0.95;;
27408;SDS011;20413;50.782;7.152;2022-09-17T00:37:51;5.65;;;1.15;;
27408;SDS011;20413;50.782;7.152;2022-09-17T00:40:18;8.57;;;1.48;;
27408;SDS011;20413;50.782;7.152;2022-09-17T00:42:44;5.32;;;0.93;;
27408;SDS011;20413;50.782;7.152;2022-09-17T00:45:10;4.32;;;1.00;;
27408;SDS011;20413;50.782;7.152;2022-09-17T00:47:37;5.97;;;1.48;;
27408;SDS011;20413;50.782;7.152;2022-09-17T00:52:40;7.95;;;1.33;;
27408;SDS011;20413;50.782;7.152;2022-09-17T00:55:12;4.30;;;0.80;;
27408;SDS011;20413;50.782;7.152;2022-09-17T00:57:39;4.75;;;0.95;;
27408;SDS011;20413;50.782;7.152;2022-09-17T01:00:06;3.75;;;1.08;;
27408;SDS011;20413;50.782;7.152;2022-09-17T01:02:33;3.35;;;0.85;;
27408;SDS011;20413;50.782;7.152;2022-09-17T01:04:59;10.00;;;1.10;;
27408;SDS011;20413;50.782;7.152;2022-09-17T01:07:30;3.25;;;0.90;;
27408;SDS011;20413;50.782;7.152;2022-09-17T01:10:00;5.45;;;0.93;;
27408;SDS011;20413;50.782;7.152;2022-09-17T01:22:58;8.50;;;1.20;;
27408;SDS011;20413;50.782;7.152;2022-09-17T01:25:28;5.68;;;1.65;;
27408;SDS011;20413;50.782;7.152;2022-09-17T01:28:01;7.68;;;1.73;;
27408;SDS011;20413;50.782;7.152;2022-09-17T01:33:46;6.20;;;0.90;;
27408;SDS011;20413;50.782;7.152;2022-09-17T01:35:51;6.33;;;1.33;;
27408;SDS011;20413;50.782;7.152;2022-09-17T01:38:26;2.58;;;1.00;;
27408;SDS011;20413;50.782;7.152;2022-09-17T01:41:05;6.82;;;1.08;;
27408;SDS011;20413;50.782;7.152;2022-09-17T01:43:36;6.35;;;1.60;;
27408;SDS011;20413;50.782;7.152;2022-09-17T01:48:35;8.73;;;1.50;;
27408;SDS011;20413;50.782;7.152;2022-09-17T01:51:10;4.65;;;1.23;;
27408;SDS011;20413;50.782;7.152;2022-09-17T01:56:09;8.85;;;1.83;;
27408;SDS011;20413;50.782;7.152;2022-09-17T01:58:39;9.05;;;2.42;;
27408;SDS011;20413;50.782;7.152;2022-09-17T02:01:07;8.05;;;1.60;;
27408;SDS011;20413;50.782;7.152;2022-09-17T02:03:44;8.45;;;1.75;;
27408;SDS011;20413;50.782;7.152;2022-09-17T02:06:16;11.88;;;1.85;;
27408;SDS011;20413;50.782;7.152;2022-09-17T02:08:51;5.13;;;1.10;;
27408;SDS011;20413;50.782;7.152;2022-09-17T02:11:18;7.30;;;1.48;;
27408;SDS011;20413;50.782;7.152;2022-09-17T02:14:02;8.13;;;1.85;;
27408;SDS011;20413;50.782;7.152;2022-09-17T02:16:31;4.30;;;1.15;;
27408;SDS011;20413;50.782;7.152;2022-09-17T02:27:33;9.15;;;1.60;;
27408;SDS011;20413;50.782;7.152;2022-09-17T02:29:56;6.43;;;1.77;;
27408;SDS011;20413;50.782;7.152;2022-09-17T02:32:22;8.00;;;1.48;;
27408;SDS011;20413;50.782;7.152;2022-09-17T02:34:49;6.28;;;2.00;;
27408;SDS011;20413;50.782;7.152;2022-09-17T02:37:15;10.70;;;1.90;;
27408;SDS011;20413;50.782;7.152;2022-09-17T02:39:41;4.28;;;1.67;;
27408;SDS011;20413;50.782;7.152;2022-09-17T02:57:29;6.97;;;1.40;;
27408;SDS011;20413;50.782;7.152;2022-09-17T03:00:17;7.30;;;1.38;;
27408;SDS011;20413;50.782;7.152;2022-09-17T03:02:51;3.45;;;1.50;;
27408;SDS011;20413;50.782;7.152;2022-09-17T03:05:18;10.73;;;1.60;;
27408;SDS011;20413;50.782;7.152;2022-09-17T03:07:45;7.17;;;1.37;;
27408;SDS011;20413;50.782;7.152;2022-09-17T03:10:12;5.70;;;1.05;;
27408;SDS011;20413;50.782;7.152;2022-09-17T03:12:38;8.82;;;1.90;;
27408;SDS011;20413;50.782;7.152;2022-09-17T03:15:05;8.10;;;1.63;;
27408;SDS011;20413;50.782;7.152;2022-09-17T03:17:31;12.40;;;2.30;;
27408;SDS011;20413;50.782;7.152;2022-09-17T03:19:57;6.22;;;1.30;;
27408;SDS011;20413;50.782;7.152;2022-09-17T03:22:23;7.03;;;1.33;;
27408;SDS011;20413;50.782;7.152;2022-09-17T03:24:49;5.60;;;1.55;;
27408;SDS011;20413;50.782;7.152;2022-09-17T03:27:15;7.20;;;1.50;;
27408;SDS011;20413;50.782;7.152;2022-09-17T03:29:41;8.52;;;2.03;;
27408;SDS011;20413;50.782;7.152;2022-09-17T03:32:07;9.18;;;2.13;;
27408;SDS011;20413;50.782;7.152;2022-09-17T03:34:33;6.03;;;1.48;;
27408;SDS011;20413;50.782;7.152;2022-09-17T03:36:59;10.70;;;1.88;;
27408;SDS011;20413;50.782;7.152;2022-09-17T03:39:25;13.90;;;2.25;;
27408;SDS011;20413;50.782;7.152;2022-09-17T03:41:51;12.18;;;2.28;;
27408;SDS011;20413;50.782;7.152;2022-09-17T03:44:17;6.03;;;1.83;;
27408;SDS011;20413;50.782;7.152;2022-09-17T03:46:45;8.07;;;2.57;;
27408;SDS011;20413;50.782;7.152;2022-09-17T03:49:11;12.98;;;2.70;;
27408;SDS011;20413;50.782;7.152;2022-09-17T03:51:37;14.93;;;2.28;;
27408;SDS011;20413;50.782;7.152;2022-09-17T03:54:03;16.27;;;2.10;;
27408;SDS011;20413;50.782;7.152;2022-09-17T03:56:29;10.38;;;2.15;;
27408;SDS011;20413;50.782;7.152;2022-09-17T03:58:58;8.27;;;1.90;;
27408;SDS011;20413;50.782;7.152;2022-09-17T04:01:24;6.15;;;1.42;;
27408;SDS011;20413;50.782;7.152;2022-09-17T04:03:51;9.05;;;2.08;;
27408;SDS011;20413;50.782;7.152;2022-09-17T04:06:17;11.38;;;2.15;;
27408;SDS011;20413;50.782;7.152;2022-09-17T04:08:43;11.38;;;1.60;;
27408;SDS011;20413;50.782;7.152;2022-09-17T04:11:09;9.95;;;2.45;;
27408;SDS011;20413;50.782;7.152;2022-09-17T04:13:35;12.70;;;1.92;;
27408;SDS011;20413;50.782;7.152;2022-09-17T04:16:01;10.63;;;2.47;;
27408;SDS011;20413;50.782;7.152;2022-09-17T04:18:28;9.07;;;1.65;;
27408;SDS011;20413;50.782;7.152;2022-09-17T04:20:54;9.25;;;1.90;;
27408;SDS011;20413;50.782;7.152;2022-09-17T04:23:20;9.90;;;2.30;;
27408;SDS011;20413;50.782;7.152;2022-09-17T04:25:47;6.85;;;2.08;;
27408;SDS011;20413;50.782;7.152;2022-09-17T04:28:13;11.50;;;2.40;;
27408;SDS011;20413;50.782;7.152;2022-09-17T04:30:39;7.15;;;1.65;;
27408;SDS011;20413;50.782;7.152;2022-09-17T04:33:07;6.27;;;1.63;;
27408;SDS011;20413;50.782;7.152;2022-09-17T04:35:33;11.13;;;2.35;;
27408;SDS011;20413;50.782;7.152;2022-09-17T04:37:59;7.50;;;1.80;;
27408;SDS011;20413;50.782;7.152;2022-09-17T04:40:25;6.60;;;2.05;;
27408;SDS011;20413;50.782;7.152;2022-09-17T04:42:53;10.10;;;2.70;;
27408;SDS011;20413;50.782;7.152;2022-09-17T04:45:19;13.18;;;2.17;;
27408;SDS011;20413;50.782;7.152;2022-09-17T04:47:45;11.02;;;1.75;;
27408;SDS011;20413;50.782;7.152;2022-09-17T04:50:11;9.20;;;2.65;;
27408;SDS011;20413;50.782;7.152;2022-09-17T04:52:41;7.95;;;2.03;;
27408;SDS011;20413;50.782;7.152;2022-09-17T04:55:07;9.50;;;2.20;;
27408;SDS011;20413;50.782;7.152;2022-09-17T04:57:34;6.30;;;2.05;;
27408;SDS011;20413;50.782;7.152;2022-09-17T05:00:00;9.88;;;2.40;;
27408;SDS011;20413;50.782;7.152;2022-09-17T05:02:26;14.50;;;1.98;;
27408;SDS011;20413;50.782;7.152;2022-09-17T05:04:52;13.73;;;2.00;;
27408;SDS011;20413;50.782;7.152;2022-09-17T05:07:20;11.68;;;2.20;;
27408;SDS011;20413;50.782;7.152;2022-09-17T05:09:46;6.85;;;1.48;;
27408;SDS011;20413;50.782;7.152;2022-09-17T05:12:12;12.68;;;1.45;;
27408;SDS011;20413;50.782;7.152;2022-09-17T05:14:38;5.85;;;1.77;;
27408;SDS011;20413;50.782;7.152;2022-09-17T05:17:04;7.88;;;1.70;;
27408;SDS011;20413;50.782;7.152;2022-09-17T05:19:30;10.45;;;1.77;;
27408;SDS011;20413;50.782;7.152;2022-09-17T05:21:56;6.45;;;1.15;;
27408;SDS011;20413;50.782;7.152;2022-09-17T05:24:22;8.60;;;1.67;;
27408;SDS011;20413;50.782;7.152;2022-09-17T05:26:49;7.68;;;1.63;;
27408;SDS011;20413;50.782;7.152;2022-09-17T05:29:15;7.55;;;1.90;;
27408;SDS011;20413;50.782;7.152;2022-09-17T05:31:41;6.65;;;1.50;;
27408;SDS011;20413;50.782;7.152;2022-09-17T05:34:07;4.20;;;0.85;;
27408;SDS011;20413;50.782;7.152;2022-09-17T05:36:33;6.60;;;1.55;;
27408;SDS011;20413;50.782;7.152;2022-09-17T05:38:59;12.20;;;1.70;;
27408;SDS011;20413;50.782;7.152;2022-09-17T05:41:25;6.15;;;1.20;;
27408;SDS011;20413;50.782;7.152;2022-09-17T05:43:51;6.80;;;1.25;;
27408;SDS011;20413;50.782;7.152;2022-09-17T05:46:17;11.77;;;1.55;;
27408;SDS011;20413;50.782;7.152;2022-09-17T05:48:43;7.70;;;1.17;;
27408;SDS011;20413;50.782;7.152;2022-09-17T05:51:09;12.63;;;1.38;;
27408;SDS011;20413;50.782;7.152;2022-09-17T05:53:35;6.88;;;1.30;;
27408;SDS011;20413;50.782;7.152;2022-09-17T05:56:01;10.32;;;1.75;;
27408;SDS011;20413;50.782;7.152;2022-09-17T05:58:28;10.45;;;1.48;;
27408;SDS011;20413;50.782;7.152;2022-09-17T06:00:54;9.38;;;1.30;;
27408;SDS011;20413;50.782;7.152;2022-09-17T06:03:20;8.10;;;1.52;;
27408;SDS011;20413;50.782;7.152;2022-09-17T06:05:55;8.60;;;1.10;;
27408;SDS011;20413;50.782;7.152;2022-09-17T06:08:22;7.85;;;1.05;;
27408;SDS011;20413;50.782;7.152;2022-09-17T06:10:48;9.25;;;1.17;;
27408;SDS011;20413;50.782;7.152;2022-09-17T06:13:17;6.47;;;1.17;;
27408;SDS011;20413;50.782;7.152;2022-09-17T06:15:50;9.15;;;1.27;;
27408;SDS011;20413;50.782;7.152;2022-09-17T06:18:17;9.88;;;1.00;;
27408;SDS011;20413;50.782;7.152;2022-09-17T06:20:50;11.98;;;1.40;;
27408;SDS011;20413;50.782;7.152;2022-09-17T06:23:17;7.70;;;1.00;;
27408;SDS011;20413;50.782;7.152;2022-09-17T06:25:43;9.75;;;1.30;;
27408;SDS011;20413;50.782;7.152;2022-09-17T06:28:14;8.20;;;1.30;;
27408;SDS011;20413;50.782;7.152;2022-09-17T06:30:40;8.80;;;1.45;;
27408;SDS011;20413;50.782;7.152;2022-09-17T06:33:06;8.05;;;1.00;;
27408;SDS011;20413;50.782;7.152;2022-09-17T06:35:32;5.82;;;1.63;;
27408;SDS011;20413;50.782;7.152;2022-09-17T06:37:58;5.82;;;0.85;;
27408;SDS011;20413;50.782;7.152;2022-09-17T06:40:24;10.40;;;1.70;;
27408;SDS011;20413;50.782;7.152;2022-09-17T06:42:55;8.55;;;1.25;;
27408;SDS011;20413;50.782;7.152;2022-09-17T06:45:21;5.35;;;1.38;;
27408;SDS011;20413;50.782;7.152;2022-09-17T06:47:47;6.35;;;1.13;;
27408;SDS011;20413;50.782;7.152;2022-09-17T06:50:13;5.00;;;0.82;;
27408;SDS011;20413;50.782;7.152;2022-09-17T06:52:46;3.97;;;0.75;;
27408;SDS011;20413;50.782;7.152;2022-09-17T06:55:12;8.18;;;1.08;;
27408;SDS011;20413;50.782;7.152;2022-09-17T06:57:38;6.72;;;1.27;;
27408;SDS011;20413;50.782;7.152;2022-09-17T07:00:04;4.35;;;1.27;;
27408;SDS011;20413;50.782;7.152;2022-09-17T07:02:31;4.75;;;0.88;;
27408;SDS011;20413;50.782;7.152;2022-09-17T07:04:57;6.28;;;0.80;;
27408;SDS011;20413;50.782;7.152;2022-09-17T07:07:23;11.05;;;1.05;;
27408;SDS011;20413;50.782;7.152;2022-09-17T07:09:49;9.57;;;1.95;;
27408;SDS011;20413;50.782;7.152;2022-09-17T07:12:16;8.30;;;1.70;;
27408;SDS011;20413;50.782;7.152;2022-09-17T07:14:42;6.10;;;0.90;;
27408;SDS011;20413;50.782;7.152;2022-09-17T07:17:08;2.83;;;0.75;;
27408;SDS011;20413;50.782;7.152;2022-09-17T07:19:34;9.13;;;1.25;;
27408;SDS011;20413;50.782;7.152;2022-09-17T07:22:00;4.43;;;0.85;;
27408;SDS011;20413;50.782;7.152;2022-09-17T07:24:26;7.85;;;1.45;;
27408;SDS011;20413;50.782;7.152;2022-09-17T07:26:52;7.45;;;1.10;;
27408;SDS011;20413;50.782;7.152;2022-09-17T07:29:18;12.18;;;1.52;;
27408;SDS011;20413;50.782;7.152;2022-09-17T07:31:45;4.72;;;1.60;;
27408;SDS011;20413;50.782;7.152;2022-09-17T07:34:11;3.75;;;0.90;;
27408;SDS011;20413;50.782;7.152;2022-09-17T07:36:37;8.10;;;1.75;;
27408;SDS011;20413;50.782;7.152;2022-09-17T07:39:03;9.00;;;1.00;;
27408;SDS011;20413;50.782;7.152;2022-09-17T07:41:29;12.90;;;1.63;;
27408;SDS011;20413;50.782;7.152;2022-09-17T07:43:56;10.00;;;1.63;;
27408;SDS011;20413;50.782;7.152;2022-09-17T07:46:22;9.98;;;2.17;;
27408;SDS011;20413;50.782;7.152;2022-09-17T07:48:48;3.60;;;0.70;;
27408;SDS011;20413;50.782;7.152;2022-09-17T07:51:16;8.73;;;1.55;;
27408;SDS011;20413;50.782;7.152;2022-09-17T07:53:42;7.30;;;1.10;;
27408;SDS011;20413;50.782;7.152;2022-09-17T07:56:08;3.60;;;0.95;;
27408;SDS011;20413;50.782;7.152;2022-09-17T07:58:34;7.35;;;1.52;;
27408;SDS011;20413;50.782;7.152;2022-09-17T08:01:04;5.07;;;0.90;;
27408;SDS011;20413;50.782;7.152;2022-09-17T08:03:32;4.68;;;1.00;;
27408;SDS011;20413;50.782;7.152;2022-09-17T08:06:04;8.20;;;1.45;;
27408;SDS011;20413;50.782;7.152;2022-09-17T08:08:31;6.50;;;1.13;;
27408;SDS011;20413;50.782;7.152;2022-09-17T08:10:59;6.13;;;1.15;;
27408;SDS011;20413;50.782;7.152;2022-09-17T08:13:25;5.80;;;1.37;;
27408;SDS011;20413;50.782;7.152;2022-09-17T08:15:51;7.45;;;0.90;;
27408;SDS011;20413;50.782;7.152;2022-09-17T08:18:17;2.30;;;0.85;;
27408;SDS011;20413;50.782;7.152;2022-09-17T08:20:43;16.48;;;1.40;;
27408;SDS011;20413;50.782;7.152;2022-09-17T08:23:09;6.90;;;0.88;;
27408;SDS011;20413;50.782;7.152;2022-09-17T08:25:35;8.40;;;1.00;;
27408;SDS011;20413;50.782;7.152;2022-09-17T08:28:01;6.43;;;1.30;;
27408;SDS011;20413;50.782;7.152;2022-09-17T08:30:28;13.73;;;1.20;;
27408;SDS011;20413;50.782;7.152;2022-09-17T08:32:55;3.53;;;1.00;;
27408;SDS011;20413;50.782;7.152;2022-09-17T08:35:21;4.80;;;1.05;;
27408;SDS011;20413;50.782;7.152;2022-09-17T08:40:16;8.73;;;1.25;;
27408;SDS011;20413;50.782;7.152;2022-09-17T08:42:57;3.55;;;0.98;;
27408;SDS011;20413;50.782;7.152;2022-09-17T08:45:24;4.78;;;1.20;;
27408;SDS011;20413;50.782;7.152;2022-09-17T08:47:51;6.30;;;0.90;;
27408;SDS011;20413;50.782;7.152;2022-09-17T08:50:26;3.00;;;0.73;;
27408;SDS011;20413;50.782;7.152;2022-09-17T08:52:55;6.05;;;1.10;;
27408;SDS011;20413;50.782;7.152;2022-09-17T08:55:36;8.82;;;0.80;;
27408;SDS011;20413;50.782;7.152;2022-09-17T08:58:26;7.07;;;0.80;;
27408;SDS011;20413;50.782;7.152;2022-09-17T09:06:11;11.07;;;1.35;;
27408;SDS011;20413;50.782;7.152;2022-09-17T09:08:39;5.22;;;1.15;;
27408;SDS011;20413;50.782;7.152;2022-09-17T09:11:13;12.63;;;1.50;;
27408;SDS011;20413;50.782;7.152;2022-09-17T09:13:41;6.43;;;1.40;;
27408;SDS011;20413;50.782;7.152;2022-09-17T09:16:27;9.63;;;1.30;;
27408;SDS011;20413;50.782;7.152;2022-09-17T09:18:58;5.30;;;0.80;;
27408;SDS011;20413;50.782;7.152;2022-09-17T09:21:30;3.72;;;0.93;;
27408;SDS011;20413;50.782;7.152;2022-09-17T09:26:46;7.40;;;1.35;;
27408;SDS011;20413;50.782;7.152;2022-09-17T09:34:04;4.13;;;0.90;;
27408;SDS011;20413;50.782;7.152;2022-09-17T09:36:31;3.78;;;0.80;;
27408;SDS011;20413;50.782;7.152;2022-09-17T09:39:02;7.72;;;0.88;;
27408;SDS011;20413;50.782;7.152;2022-09-17T09:43:57;3.50;;;0.77;;
27408;SDS011;20413;50.782;7.152;2022-09-17T09:57:03;2.88;;;0.93;;
27408;SDS011;20413;50.782;7.152;2022-09-17T09:59:31;3.33;;;0.95;;
27408;SDS011;20413;50.782;7.152;2022-09-17T10:01:59;4.03;;;0.60;;
27408;SDS011;20413;50.782;7.152;2022-09-17T10:04:26;5.57;;;0.98;;
27408;SDS011;20413;50.782;7.152;2022-09-17T10:06:53;6.68;;;0.90;;
27408;SDS011;20413;50.782;7.152;2022-09-17T10:09:20;4.40;;;0.80;;
27408;SDS011;20413;50.782;7.152;2022-09-17T10:12:00;8.02;;;0.70;;
27408;SDS011;20413;50.782;7.152;2022-09-17T10:14:30;4.80;;;0.82;;
27408;SDS011;20413;50.782;7.152;2022-09-17T10:19:43;9.23;;;1.00;;
27408;SDS011;20413;50.782;7.152;2022-09-17T10:24:42;3.80;;;0.75;;
27408;SDS011;20413;50.782;7.152;2022-09-17T10:27:15;2.83;;;0.70;;
27408;SDS011;20413;50.782;7.152;2022-09-17T10:30:13;2.30;;;0.60;;
27408;SDS011;20413;50.782;7.152;2022-09-17T10:32:29;4.78;;;0.68;;
27408;SDS011;20413;50.782;7.152;2022-09-17T10:35:03;11.00;;;1.30;;
27408;SDS011;20413;50.782;7.152;2022-09-17T10:39:58;4.63;;;1.05;;
27408;SDS011;20413;50.782;7.152;2022-09-17T10:42:24;8.45;;;1.20;;
27408;SDS011;20413;50.782;7.152;2022-09-17T10:44:54;5.38;;;0.80;;
27408;SDS011;20413;50.782;7.152;2022-09-17T10:47:21;1.40;;;0.30;;
27408;SDS011;20413;50.782;7.152;2022-09-17T10:50:13;4.57;;;0.40;;
27408;SDS011;20413;50.782;7.152;2022-09-17T10:52:45;2.38;;;0.52;;
27408;SDS011;20413;50.782;7.152;2022-09-17T11:11:03;2.28;;;0.45;;
27408;SDS011;20413;50.782;7.152;2022-09-17T11:18:42;2.90;;;0.45;;
27408;SDS011;20413;50.782;7.152;2022-09-17T11:26:42;9.10;;;0.70;;
27408;SDS011;20413;50.782;7.152;2022-09-17T11:32:02;4.25;;;0.70;;
27408;SDS011;20413;50.782;7.152;2022-09-17T11:34:45;4.80;;;0.60;;
27408;SDS011;20413;50.782;7.152;2022-09-17T11:39:59;2.88;;;0.57;;
27408;SDS011;20413;50.782;7.152;2022-09-17T11:42:38;2.45;;;0.77;;
27408;SDS011;20413;50.782;7.152;2022-09-17T11:45:11;4.65;;;0.77;;
27408;SDS011;20413;50.782;7.152;2022-09-17T11:47:43;3.15;;;0.40;;
27408;SDS011;20413;50.782;7.152;2022-09-17T11:52:46;1.05;;;0.30;;
27408;SDS011;20413;50.782;7.152;2022-09-17T11:55:19;2.83;;;0.50;;
27408;SDS011;20413;50.782;7.152;2022-09-17T11:57:47;4.55;;;0.60;;
27408;SDS011;20413;50.782;7.152;2022-09-17T12:00:14;2.88;;;0.40;;
27408;SDS011;20413;50.782;7.152;2022-09-17T12:02:59;1.38;;;0.57;;
27408;SDS011;20413;50.782;7.152;2022-09-17T12:05:42;1.80;;;0.30;;
27408;SDS011;20413;50.782;7.152;2022-09-17T12:15:42;0.82;;;0.30;;
27408;SDS011;20413;50.782;7.152;2022-09-17T12:20:37;8.38;;;1.38;;
27408;SDS011;20413;50.782;7.152;2022-09-17T12:23:05;3.75;;;0.60;;
27408;SDS011;20413;50.782;7.152;2022-09-17T12:28:26;4.68;;;1.08;;
27408;SDS011;20413;50.782;7.152;2022-09-17T12:30:57;5.13;;;0.85;;
27408;SDS011;20413;50.782;7.152;2022-09-17T12:33:31;3.00;;;0.80;;
27408;SDS011;20413;50.782;7.152;2022-09-17T12:41:34;3.80;;;0.75;;
27408;SDS011;20413;50.782;7.152;2022-09-17T12:43:43;3.38;;;0.55;;
27408;SDS011;20413;50.782;7.152;2022-09-17T12:46:26;2.25;;;0.40;;
27408;SDS011;20413;50.782;7.152;2022-09-17T12:51:59;2.70;;;0.32;;
27408;SDS011;20413;50.782;7.152;2022-09-17T12:59:22;3.22;;;0.68;;
27408;SDS011;20413;50.782;7.152;2022-09-17T13:09:31;3.28;;;0.70;;
27408;SDS011;20413;50.782;7.152;2022-09-17T13:18:14;2.75;;;0.52;;
27408;SDS011;20413;50.782;7.152;2022-09-17T13:20:42;2.67;;;0.60;;
27408;SDS011;20413;50.782;7.152;2022-09-17T13:25:50;3.00;;;0.65;;
27408;SDS011;20413;50.782;7.152;2022-09-17T13:28:19;1.05;;;0.40;;
27408;SDS011;20413;50.782;7.152;2022-09-17T13:31:03;6.25;;;0.90;;
27408;SDS011;20413;50.782;7.152;2022-09-17T13:38:59;6.20;;;1.13;;
27408;SDS011;20413;50.782;7.152;2022-09-17T13:41:26;6.32;;;0.77;;
27408;SDS011;20413;50.782;7.152;2022-09-17T13:43:53;7.90;;;1.08;;
27408;SDS011;20413;50.782;7.152;2022-09-17T13:46:20;4.45;;;0.65;;
27408;SDS011;20413;50.782;7.152;2022-09-17T13:48:47;1.65;;;0.50;;
27408;SDS011;20413;50.782;7.152;2022-09-17T13:54:00;0.88;;;0.57;;
27408;SDS011;20413;50.782;7.152;2022-09-17T13:56:32;7.03;;;1.20;;
27408;SDS011;20413;50.782;7.152;2022-09-17T13:59:06;3.50;;;0.70;;
27408;SDS011;20413;50.782;7.152;2022-09-17T14:06:58;0.93;;;0.40;;
27408;SDS011;20413;50.782;7.152;2022-09-17T14:09:34;4.75;;;1.20;;
27408;SDS011;20413;50.782;7.152;2022-09-17T14:12:53;3.03;;;0.55;;
27408;SDS011;20413;50.782;7.152;2022-09-17T14:14:59;6.30;;;0.85;;
27408;SDS011;20413;50.782;7.152;2022-09-17T14:20:22;3.47;;;0.60;;
27408;SDS011;20413;50.782;7.152;2022-09-17T14:22:55;3.85;;;1.02;;
27408;SDS011;20413;50.782;7.152;2022-09-17T14:25:24;6.55;;;1.10;;
27408;SDS011;20413;50.782;7.152;2022-09-17T14:27:57;2.33;;;0.70;;
27408;SDS011;20413;50.782;7.152;2022-09-17T14:30:30;5.55;;;0.90;;
27408;SDS011;20413;50.782;7.152;2022-09-17T14:38:16;1.60;;;0.75;;
27408;SDS011;20413;50.782;7.152;2022-09-17T14:40:45;8.30;;;0.70;;
27408;SDS011;20413;50.782;7.152;2022-09-17T14:43:19;6.20;;;0.60;;
27408;SDS011;20413;50.782;7.152;2022-09-17T14:45:47;2.90;;;0.52;;
27408;SDS011;20413;50.782;7.152;2022-09-17T14:50:40;3.67;;;0.77;;
27408;SDS011;20413;50.782;7.152;2022-09-17T14:53:07;3.70;;;0.47;;
27408;SDS011;20413;50.782;7.152;2022-09-17T14:55:33;4.32;;;0.70;;
27408;SDS011;20413;50.782;7.152;2022-09-17T14:58:17;5.55;;;0.52;;
27408;SDS011;20413;50.782;7.152;2022-09-17T15:00:50;3.08;;;0.60;;
27408;SDS011;20413;50.782;7.152;2022-09-17T15:03:20;1.67;;;0.50;;
27408;SDS011;20413;50.782;7.152;2022-09-17T15:05:47;3.03;;;0.70;;
27408;SDS011;20413;50.782;7.152;2022-09-17T15:08:16;3.35;;;0.93;;
27408;SDS011;20413;50.782;7.152;2022-09-17T15:10:46;3.75;;;0.63;;
27408;SDS011;20413;50.782;7.152;2022-09-17T15:13:17;3.28;;;0.60;;
27408;SDS011;20413;50.782;7.152;2022-09-17T15:15:55;3.40;;;0.55;;
27408;SDS011;20413;50.782;7.152;2022-09-17T15:18:23;1.85;;;0.57;;
27408;SDS011;20413;50.782;7.152;2022-09-17T15:20:53;4.85;;;0.85;;
27408;SDS011;20413;50.782;7.152;2022-09-17T15:23:22;3.60;;;0.60;;
27408;SDS011;20413;50.782;7.152;2022-09-17T15:25:51;3.38;;;0.70;;
27408;SDS011;20413;50.782;7.152;2022-09-17T15:30:54;1.85;;;0.60;;
27408;SDS011;20413;50.782;7.152;2022-09-17T15:33:20;1.98;;;0.40;;
27408;SDS011;20413;50.782;7.152;2022-09-17T15:35:58;2.60;;;0.70;;
27408;SDS011;20413;50.782;7.152;2022-09-17T15:38:28;3.75;;;0.73;;
27408;SDS011;20413;50.782;7.152;2022-09-17T15:41:09;3.28;;;0.70;;
27408;SDS011;20413;50.782;7.152;2022-09-17T15:43:37;14.10;;;0.90;;
27408;SDS011;20413;50.782;7.152;2022-09-17T15:48:46;3.33;;;1.05;;
27408;SDS011;20413;50.782;7.152;2022-09-17T15:51:23;3.40;;;1.05;;
27408;SDS011;20413;50.782;7.152;2022-09-17T15:53:54;2.13;;;0.90;;
27408;SDS011;20413;50.782;7.152;2022-09-17T15:56:21;5.65;;;1.08;;
27408;SDS011;20413;50.782;7.152;2022-09-17T16:08:43;3.13;;;1.00;;
27408;SDS011;20413;50.782;7.152;2022-09-17T16:11:15;7.15;;;0.93;;
27408;SDS011;20413;50.782;7.152;2022-09-17T16:13:41;2.63;;;0.93;;
27408;SDS011;20413;50.782;7.152;2022-09-17T16:16:17;6.15;;;1.35;;
27408;SDS011;20413;50.782;7.152;2022-09-17T16:18:44;4.45;;;1.02;;
27408;SDS011;20413;50.782;7.152;2022-09-17T16:21:10;5.88;;;1.30;;
27408;SDS011;20413;50.782;7.152;2022-09-17T16:23:36;2.45;;;1.58;;
27408;SDS011;20413;50.782;7.152;2022-09-17T16:26:03;4.32;;;1.50;;
27408;SDS011;20413;50.782;7.152;2022-09-17T16:28:29;3.28;;;1.20;;
27408;SDS011;20413;50.782;7.152;2022-09-17T16:30:55;3.58;;;1.20;;
27408;SDS011;20413;50.782;7.152;2022-09-17T16:33:21;4.25;;;0.70;;
27408;SDS011;20413;50.782;7.152;2022-09-17T16:35:48;2.00;;;0.70;;
27408;SDS011;20413;50.782;7.152;2022-09-17T16:38:14;6.20;;;0.95;;
27408;SDS011;20413;50.782;7.152;2022-09-17T16:40:41;4.45;;;1.70;;
27408;SDS011;20413;50.782;7.152;2022-09-17T16:43:07;5.68;;;1.30;;
27408;SDS011;20413;50.782;7.152;2022-09-17T16:45:34;4.82;;;1.45;;
27408;SDS011;20413;50.782;7.152;2022-09-17T16:48:00;4.40;;;1.30;;
27408;SDS011;20413;50.782;7.152;2022-09-17T16:50:26;4.32;;;1.35;;
27408;SDS011;20413;50.782;7.152;2022-09-17T16:52:52;4.05;;;1.08;;
27408;SDS011;20413;50.782;7.152;2022-09-17T16:55:18;5.32;;;1.17;;
27408;SDS011;20413;50.782;7.152;2022-09-17T16:57:45;4.90;;;0.85;;
27408;SDS011;20413;50.782;7.152;2022-09-17T17:00:12;3.95;;;1.20;;
27408;SDS011;20413;50.782;7.152;2022-09-17T17:02:40;5.10;;;1.00;;
27408;SDS011;20413;50.782;7.152;2022-09-17T17:05:07;6.55;;;1.35;;
27408;SDS011;20413;50.782;7.152;2022-09-17T17:07:34;5.25;;;1.40;;
27408;SDS011;20413;50.782;7.152;2022-09-17T17:10:01;4.18;;;1.10;;
27408;SDS011;20413;50.782;7.152;2022-09-17T17:12:27;5.43;;;1.55;;
27408;SDS011;20413;50.782;7.152;2022-09-17T17:14:53;11.73;;;1.48;;
27408;SDS011;20413;50.782;7.152;2022-09-17T17:17:20;6.88;;;1.70;;
27408;SDS011;20413;50.782;7.152;2022-09-17T17:19:46;6.20;;;1.27;;
27408;SDS011;20413;50.782;7.152;2022-09-17T17:22:12;7.93;;;1.60;;
27408;SDS011;20413;50.782;7.152;2022-09-17T17:24:38;5.55;;;1.50;;
27408;SDS011;20413;50.782;7.152;2022-09-17T17:27:04;9.45;;;1.80;;
27408;SDS011;20413;50.782;7.152;2022-09-17T17:29:32;6.55;;;1.65;;
27408;SDS011;20413;50.782;7.152;2022-09-17T17:31:59;6.72;;;2.17;;
27408;SDS011;20413;50.782;7.152;2022-09-17T17:34:25;7.85;;;2.42;;
27408;SDS011;20413;50.782;7.152;2022-09-17T17:36:51;9.13;;;2.20;;
27408;SDS011;20413;50.782;7.152;2022-09-17T17:39:17;11.68;;;4.00;;
27408;SDS011;20413;50.782;7.152;2022-09-17T17:41:43;9.35;;;2.90;;
27408;SDS011;20413;50.782;7.152;2022-09-17T17:44:09;6.30;;;3.15;;
27408;SDS011;20413;50.782;7.152;2022-09-17T17:46:36;9.35;;;4.00;;
27408;SDS011;20413;50.782;7.152;2022-09-17T17:49:03;9.75;;;4.00;;
27408;SDS011;20413;50.782;7.152;2022-09-17T17:51:29;15.23;;;5.10;;
27408;SDS011;20413;50.782;7.152;2022-09-17T17:53:55;12.18;;;4.72;;
27408;SDS011;20413;50.782;7.152;2022-09-17T17:56:21;7.10;;;3.65;;
27408;SDS011;20413;50.782;7.152;2022-09-17T17:58:47;10.95;;;4.50;;
27408;SDS011;20413;50.782;7.152;2022-09-17T18:03:40;9.10;;;3.38;;
27408;SDS011;20413;50.782;7.152;2022-09-17T18:06:06;8.50;;;2.42;;
27408;SDS011;20413;50.782;7.152;2022-09-17T18:08:35;12.95;;;3.10;;
27408;SDS011;20413;50.782;7.152;2022-09-17T18:11:02;7.45;;;2.72;;
27408;SDS011;20413;50.782;7.152;2022-09-17T18:13:28;9.90;;;3.50;;